Terminal Aerodrome Forecast
Issued by NWS

Home | Current Version | Previous Version | Text Only | Print | Product List | Glossary On
Versions: 1 2 3 4 5 6 7 8 9 10 11 12 13 14 15 16 17 18
111
FTUS41 KBTV 040531
TAFRUT
TAF
KRUT 040531Z 0406/0506 13007KT P6SM OVC030
     FM040900 14008KT P6SM VCSH OVC025
     FM041900 13012KT 5SM -SHRA BR OVC030
     FM050000 15009KT P6SM VCSH OVC025
     FM050200 15005KT P6SM VCSH OVC025
      AMD LTD TO CLD VIS AND WIND=

USA.gov is the U.S. government's official web portal to all federal, state and local government web resources and services.